createdAt,value
2017-05-26T08:12:57.742Z,23.60
2017-05-26T08:14:04.499Z,23.65
2017-05-26T08:17:43.447Z,23.43
2017-05-26T08:18:44.869Z,23.29
2017-05-26T08:19:46.357Z,23.19
2017-05-26T08:20:47.809Z,23.17
2017-05-26T08:21:49.294Z,23.01
2017-05-26T08:22:50.909Z,22.93
2017-05-26T08:23:52.695Z,22.87
2017-05-26T08:24:54.515Z,22.86
2017-05-26T08:25:56.316Z,22.86
2017-05-26T08:26:58.639Z,22.99
2017-05-26T08:28:00.274Z,22.94
2017-05-26T08:29:02.242Z,22.94
2017-05-26T08:30:03.872Z,23.12
2017-05-26T08:31:06.639Z,23.05
2017-05-26T08:32:08.302Z,23.15
2017-05-26T08:33:10.000Z,23.17
2017-05-26T08:34:11.490Z,23.27
2017-05-26T08:35:13.013Z,23.31
2017-05-26T08:36:14.491Z,23.24
2017-05-26T08:37:16.390Z,23.34
2017-05-26T08:38:18.225Z,23.31
2017-05-26T08:39:19.870Z,23.40
2017-05-26T08:40:21.998Z,23.47
2017-05-26T08:41:24.145Z,23.62
2017-05-26T08:42:26.613Z,23.65
2017-05-26T08:43:30.214Z,23.67
2017-05-26T08:44:32.229Z,23.71
2017-05-26T08:45:34.055Z,23.70
2017-05-26T08:46:36.047Z,23.77
2017-05-26T08:47:37.715Z,23.72
2017-05-26T08:48:39.723Z,23.82
2017-05-26T08:49:41.790Z,23.82
2017-05-26T08:50:43.943Z,23.90
2017-05-26T08:51:45.700Z,23.97
2017-05-26T08:52:47.744Z,24.08
2017-05-26T08:53:49.785Z,24.10
2017-05-26T08:54:51.796Z,24.05
2017-05-26T08:55:53.859Z,24.10
2017-05-26T08:56:55.830Z,24.14
2017-05-26T08:57:57.846Z,24.20
2017-05-26T08:58:59.853Z,24.32
2017-05-26T09:00:01.915Z,24.35
2017-05-26T09:01:03.645Z,24.47
2017-05-26T09:02:05.675Z,24.56
2017-05-26T09:03:07.653Z,24.67
2017-05-26T09:04:10.361Z,24.76
2017-05-26T09:05:12.098Z,24.76
2017-05-26T09:06:14.169Z,24.77
2017-05-26T09:07:16.030Z,24.63
2017-05-26T09:08:17.874Z,24.67
2017-05-26T09:09:20.147Z,24.75
2017-05-26T09:10:22.209Z,24.92
2017-05-26T09:11:24.048Z,24.97
2017-05-26T09:12:26.051Z,25.05
2017-05-26T09:13:28.117Z,25.10
2017-05-26T09:14:30.137Z,25.16
2017-05-26T09:15:32.091Z,25.32
2017-05-26T09:16:34.035Z,25.31
2017-05-26T09:17:36.128Z,25.31
2017-05-26T09:18:37.937Z,25.30
2017-05-26T09:19:40.189Z,25.32
2017-05-26T09:20:42.362Z,25.37
2017-05-26T09:21:44.103Z,25.47
2017-05-26T09:22:46.095Z,25.54
2017-05-26T09:23:48.110Z,25.56
2017-05-26T09:24:49.983Z,25.67
2017-05-26T09:25:52.210Z,25.67
2017-05-26T09:26:54.061Z,25.68
2017-05-26T09:27:55.970Z,25.71
2017-05-26T09:28:57.746Z,25.68
2017-05-26T09:29:59.708Z,25.80
2017-05-26T09:31:01.674Z,25.83
2017-05-26T09:32:03.332Z,25.90
2017-05-26T09:33:05.171Z,25.97
2017-05-26T09:34:07.133Z,25.97
2017-05-26T09:35:09.235Z,26.02
2017-05-26T09:36:11.181Z,26.01
2017-05-26T09:37:13.188Z,26.09
2017-05-26T09:38:15.270Z,26.24
2017-05-26T09:39:17.056Z,26.28
2017-05-26T09:40:19.251Z,26.36
2017-05-26T09:41:20.960Z,26.46
2017-05-26T09:42:22.873Z,26.35
2017-05-26T09:43:24.936Z,26.44
2017-05-26T09:44:26.837Z,26.50
2017-05-26T09:45:28.939Z,26.50
2017-05-26T09:46:30.992Z,26.57
2017-05-26T09:47:32.696Z,26.47
2017-05-26T09:48:34.660Z,26.54
2017-05-26T09:49:36.603Z,26.62
2017-05-26T09:50:38.501Z,26.61
2017-05-26T09:51:40.288Z,26.65
2017-05-26T09:52:42.320Z,26.62
2017-05-26T09:53:44.417Z,26.57
2017-05-26T09:54:46.138Z,26.54
2017-05-26T09:55:48.085Z,26.61
2017-05-26T09:56:50.919Z,26.65
2017-05-26T09:57:52.696Z,26.59
2017-05-26T09:58:54.688Z,26.74
2017-05-26T09:59:56.721Z,26.79
2017-05-26T10:00:58.693Z,26.94
2017-05-26T10:02:00.502Z,26.96
2017-05-26T10:03:02.333Z,26.98
2017-05-26T10:04:04.112Z,26.98
2017-05-26T10:05:06.040Z,26.99
2017-05-26T10:06:08.068Z,27.05
2017-05-26T10:07:09.856Z,26.95
2017-05-26T10:08:11.854Z,27.01
2017-05-26T10:09:13.651Z,26.98
2017-05-26T10:10:15.659Z,26.96
2017-05-26T10:11:17.688Z,27.05
2017-05-26T10:12:19.933Z,27.17
2017-05-26T10:13:21.824Z,27.23
2017-05-26T10:14:23.764Z,27.28
2017-05-26T10:15:25.752Z,27.28
2017-05-26T10:16:27.805Z,27.38
2017-05-26T10:17:29.611Z,27.43
2017-05-26T10:18:31.610Z,27.50
2017-05-26T10:19:33.562Z,27.48
2017-05-26T10:20:35.873Z,27.69
2017-05-26T10:21:37.765Z,27.62
2017-05-26T10:22:39.635Z,27.84
2017-05-26T10:23:41.522Z,27.80
2017-05-26T10:24:43.871Z,27.82
2017-05-26T10:25:46.093Z,27.79
2017-05-26T10:26:48.038Z,27.94
2017-05-26T10:27:49.989Z,27.91
2017-05-26T10:28:51.857Z,27.91
2017-05-26T10:29:53.665Z,27.94
2017-05-26T10:30:55.513Z,27.99
2017-05-26T10:31:57.515Z,28.04
2017-05-26T10:32:59.409Z,28.09
2017-05-26T10:34:01.539Z,28.10
2017-05-26T10:35:03.579Z,28.03
2017-05-26T10:36:05.351Z,28.01
2017-05-26T10:37:07.665Z,28.06
2017-05-26T10:38:09.305Z,27.79
2017-05-26T10:39:10.997Z,27.76
2017-05-26T10:40:13.398Z,27.89
2017-05-26T10:41:15.042Z,27.99
2017-05-26T10:42:16.858Z,27.77
2017-05-26T10:43:18.969Z,27.86
2017-05-26T10:44:21.294Z,27.98
2017-05-26T10:45:23.533Z,27.77
2017-05-26T10:46:25.460Z,27.99
2017-05-26T10:47:27.331Z,27.96
2017-05-26T10:48:30.168Z,27.92
2017-05-26T10:49:31.790Z,27.95
2017-05-26T10:50:34.312Z,27.95
2017-05-26T10:51:36.873Z,27.96
2017-05-26T10:52:38.763Z,27.94
2017-05-26T10:53:40.779Z,27.74
2017-05-26T10:54:42.460Z,27.95
2017-05-26T10:55:44.925Z,28.06
2017-05-26T10:56:46.793Z,28.07
2017-05-26T10:57:49.150Z,27.95
2017-05-26T10:58:50.817Z,28.01
2017-05-26T10:59:52.559Z,27.94
2017-05-26T11:00:54.242Z,27.69
2017-05-26T11:01:56.161Z,27.62
2017-05-26T11:02:58.153Z,27.74
2017-05-26T11:04:00.253Z,27.69
2017-05-26T11:05:02.602Z,27.91
2017-05-26T11:06:05.330Z,27.88
2017-05-26T11:07:07.094Z,27.41
2017-05-26T11:08:08.837Z,27.47
2017-05-26T11:09:11.094Z,27.38
2017-05-26T11:10:13.134Z,27.23
2017-05-26T11:11:15.600Z,26.96
2017-05-26T11:12:17.321Z,26.80
2017-05-26T11:13:19.035Z,26.47
2017-05-26T11:14:21.056Z,26.57
2017-05-26T11:15:22.897Z,26.57
2017-05-26T11:16:25.067Z,26.58
2017-05-26T11:17:32.605Z,26.57
2017-05-26T11:18:34.687Z,26.99
2017-05-26T11:19:37.034Z,27.41
2017-05-26T11:20:39.373Z,27.71
2017-05-26T11:21:41.113Z,27.64
2017-05-26T11:22:43.254Z,27.76
2017-05-26T11:23:45.057Z,27.91
2017-05-26T11:24:46.843Z,27.98
2017-05-26T11:39:12.260Z,27.11
2017-05-26T11:40:57.635Z,27.23
2017-05-26T11:41:59.596Z,27.23
2017-05-26T11:43:01.820Z,27.38
2017-05-26T11:44:03.865Z,27.48
2017-05-26T11:45:05.794Z,27.39
2017-05-26T11:46:52.409Z,27.58
2017-05-26T11:47:57.146Z,27.62
2017-05-26T11:49:46.578Z,27.91
2017-05-26T11:50:48.472Z,27.96
2017-05-26T11:52:32.426Z,27.91
2017-05-26T11:54:16.297Z,27.94
2017-05-26T11:56:04.695Z,28.13
2017-05-26T11:57:07.436Z,28.22
2017-05-26T11:58:09.506Z,28.47
2017-05-26T11:59:57.636Z,28.51
2017-05-26T12:01:07.010Z,28.58
2017-05-26T12:03:33.715Z,28.81
2017-05-26T12:05:18.851Z,28.91
2017-05-26T12:06:28.309Z,28.81
2017-05-26T12:08:14.644Z,28.87
2017-05-26T12:09:16.258Z,29.03
2017-05-26T12:11:03.377Z,29.07
2017-05-26T12:12:12.949Z,29.11
2017-05-26T12:13:18.380Z,29.03
2017-05-26T12:14:24.467Z,28.91
2017-05-26T12:16:52.181Z,29.10
2017-05-26T12:17:53.873Z,29.08
2017-05-26T12:18:55.944Z,29.06
2017-05-26T12:19:58.293Z,29.15
2017-05-26T12:21:00.369Z,29.13
2017-05-26T12:22:02.421Z,29.20
2017-05-26T12:23:04.403Z,29.22
2017-05-26T12:24:08.885Z,29.10
2017-05-26T12:25:10.755Z,29.16
2017-05-26T12:26:15.303Z,29.16
2017-05-26T12:27:19.713Z,29.29
2017-05-26T12:28:22.714Z,29.22
2017-05-26T12:30:11.498Z,29.03
2017-05-26T12:31:14.019Z,28.97
2017-05-26T12:32:16.089Z,28.85
2017-05-26T12:34:48.248Z,28.93
2017-05-26T12:36:33.187Z,29.10
2017-05-26T12:38:19.535Z,29.26
2017-05-26T12:39:22.049Z,29.23
2017-05-26T12:40:24.070Z,29.28
2017-05-26T12:41:26.595Z,29.23
2017-05-26T12:42:28.671Z,29.06
2017-05-26T12:43:30.701Z,29.07
2017-05-26T12:59:20.109Z,29.22
2017-05-26T13:00:23.723Z,29.16
2017-05-26T13:01:25.889Z,29.13
2017-05-26T13:02:28.030Z,29.10
2017-05-26T13:03:30.033Z,29.16
2017-05-26T13:04:32.183Z,29.23
2017-05-26T13:05:34.472Z,29.23
2017-05-26T13:06:36.438Z,29.28
2017-05-26T13:07:38.424Z,29.28
2017-05-26T13:08:40.402Z,29.35
2017-05-26T13:09:42.333Z,29.52
2017-05-26T13:10:44.278Z,29.65
2017-05-26T13:11:46.152Z,29.49
2017-05-26T13:12:48.426Z,29.45
2017-05-26T13:13:50.650Z,29.41
2017-05-26T13:14:52.490Z,29.38
2017-05-26T13:15:54.845Z,29.47
2017-05-26T13:16:57.084Z,29.45
2017-05-26T13:17:59.005Z,29.57
2017-05-26T13:19:01.108Z,29.49
2017-05-26T13:20:02.978Z,29.53
2017-05-26T13:21:05.062Z,29.59
2017-05-26T13:22:07.095Z,29.52
2017-05-26T13:23:09.017Z,29.43
2017-05-26T13:24:11.680Z,29.25
2017-05-26T13:25:13.455Z,29.29
2017-05-26T13:26:15.599Z,29.37
2017-05-26T13:27:17.576Z,29.28
2017-05-26T13:28:19.568Z,29.26
2017-05-26T13:31:54.805Z,29.28
2017-05-26T13:32:58.249Z,29.33
2017-05-26T13:34:01.409Z,29.35
2017-05-26T13:35:03.269Z,29.41
2017-05-26T13:36:06.777Z,29.49
2017-05-26T13:37:08.654Z,29.63
2017-05-26T13:38:12.057Z,29.72
2017-05-26T13:39:56.018Z,29.55
2017-05-26T13:40:58.816Z,29.59
2017-05-26T13:42:00.415Z,29.53
2017-05-26T13:43:02.360Z,29.47
2017-05-26T13:44:04.415Z,29.43
2017-05-26T13:45:07.084Z,29.45
2017-05-26T13:46:09.072Z,29.47
2017-05-26T13:47:11.853Z,29.37
2017-05-26T13:48:17.498Z,29.37
2017-05-26T13:49:19.186Z,29.38
2017-05-26T13:50:21.181Z,29.43
2017-05-26T13:51:25.725Z,29.52
2017-05-26T13:52:27.595Z,29.49
2017-05-26T13:53:29.614Z,29.44
2017-05-26T13:54:31.740Z,29.33
2017-05-26T13:56:16.646Z,29.22
2017-05-26T13:57:18.854Z,29.20
2017-05-26T13:58:20.721Z,29.20
2017-05-26T13:59:22.958Z,29.19
2017-05-26T14:00:25.377Z,29.19
2017-05-26T14:01:27.411Z,29.13
2017-05-26T14:03:13.203Z,29.35
2017-05-26T14:04:18.007Z,29.38
2017-05-26T14:06:01.394Z,29.52
2017-05-26T14:07:04.547Z,29.53
2017-05-26T14:08:06.669Z,29.52
2017-05-26T14:09:08.615Z,29.59
2017-05-26T14:10:10.639Z,29.62
2017-05-26T14:11:12.549Z,29.66
2017-05-26T14:12:14.527Z,29.62
2017-05-26T14:13:16.473Z,29.49
2017-05-26T14:14:18.225Z,29.33
2017-05-26T14:15:20.943Z,29.34
2017-05-26T14:16:22.910Z,29.31
2017-05-26T14:17:25.628Z,29.13
2017-05-26T14:18:28.577Z,29.08
2017-05-26T14:19:31.251Z,29.08
2017-05-26T14:20:33.323Z,29.15
2017-05-26T14:21:35.245Z,29.11
2017-05-26T14:22:37.098Z,29.20
2017-05-26T14:25:30.090Z,29.37
2017-05-26T14:26:32.308Z,29.35
2017-05-26T14:27:34.585Z,29.33
2017-05-26T14:28:36.982Z,29.35
2017-05-26T14:29:39.605Z,29.34
2017-05-26T14:30:41.905Z,29.29
2017-05-26T14:32:57.604Z,29.34
2017-05-26T14:34:45.890Z,29.28
2017-05-26T14:35:49.632Z,29.45
2017-05-26T14:36:51.674Z,29.35
2017-05-26T21:56:43.742Z,21.63
2017-05-26T21:57:45.430Z,21.61
2017-05-26T21:58:47.392Z,21.59
2017-05-26T21:59:49.565Z,21.63
2017-05-26T22:00:51.742Z,21.63
2017-05-26T22:01:53.829Z,21.59
2017-05-26T22:02:55.987Z,21.61
2017-05-26T22:03:57.764Z,21.57
2017-05-26T22:05:01.645Z,21.63
2017-05-26T22:06:03.911Z,21.59
2017-05-26T22:07:05.925Z,21.63
2017-05-26T22:08:07.974Z,21.57
2017-05-26T22:09:09.822Z,21.53
2017-05-26T22:10:11.934Z,21.54
2017-05-26T22:11:13.871Z,21.53
2017-05-26T22:12:15.952Z,21.53
2017-05-26T22:13:17.972Z,21.51
2017-05-26T22:14:19.877Z,21.53
2017-05-26T22:15:21.765Z,21.53
2017-05-26T22:16:23.943Z,21.63
2017-05-26T22:17:25.992Z,21.56
2017-05-26T22:18:28.110Z,21.61
2017-05-26T22:19:30.234Z,21.53
2017-05-26T22:20:32.111Z,21.56
2017-05-26T22:21:34.172Z,21.57
2017-05-26T22:22:36.219Z,21.48
2017-05-26T22:23:38.105Z,21.61
2017-05-26T22:24:40.027Z,21.54
2017-05-26T22:25:41.995Z,21.57
2017-05-26T22:26:43.883Z,21.50
2017-05-26T22:27:45.923Z,21.45
2017-05-26T22:28:47.807Z,21.53
2017-05-26T22:29:49.913Z,21.48
2017-05-26T22:30:52.114Z,21.42
2017-05-26T22:31:54.097Z,21.53
2017-05-26T22:32:56.077Z,21.45
2017-05-26T22:33:58.119Z,21.46
2017-05-26T22:35:00.046Z,21.48
2017-05-26T22:36:01.919Z,21.44
2017-05-26T22:37:03.913Z,21.45
2017-05-26T22:38:05.853Z,21.38
2017-05-26T22:39:07.768Z,21.42
2017-05-26T22:40:09.858Z,21.36
2017-05-26T22:41:11.845Z,21.38
2017-05-26T22:42:13.956Z,21.34
2017-05-26T22:43:16.023Z,21.34
2017-05-26T22:44:17.983Z,21.26
2017-05-26T22:45:19.981Z,21.32
2017-05-26T22:46:21.925Z,21.17
2017-05-26T22:48:07.649Z,21.35
2017-05-26T22:49:09.068Z,21.30
2017-05-26T22:50:11.139Z,21.20
2017-05-26T22:51:13.008Z,21.21
2017-05-26T22:52:14.919Z,21.20
2017-05-26T22:53:16.853Z,21.21
2017-05-26T22:54:18.779Z,21.16
2017-05-26T22:55:20.655Z,21.20
2017-05-26T22:56:22.509Z,21.20
2017-05-26T22:57:24.535Z,21.24
2017-05-26T22:58:26.497Z,21.35
2017-05-26T22:59:28.411Z,21.32
2017-05-26T23:00:30.305Z,21.32
2017-05-26T23:01:32.262Z,21.34
2017-05-26T23:02:34.123Z,21.34
2017-05-26T23:03:35.997Z,21.32
2017-05-26T23:04:38.130Z,21.36
2017-05-26T23:05:39.991Z,21.26
2017-05-26T23:06:41.894Z,21.42
2017-05-26T23:07:43.997Z,21.34
2017-05-26T23:08:46.133Z,21.34
2017-05-26T23:09:48.165Z,21.21
2017-05-26T23:10:50.027Z,21.32
2017-05-26T23:11:52.166Z,21.42
2017-05-26T23:12:54.062Z,21.27
2017-05-26T23:13:56.026Z,21.29
2017-05-26T23:14:58.433Z,21.23
2017-05-26T23:16:00.490Z,21.32
2017-05-26T23:17:02.476Z,21.35
2017-05-26T23:18:04.327Z,21.44
2017-05-26T23:19:06.436Z,21.35
2017-05-26T23:20:08.511Z,21.39
2017-05-26T23:21:10.565Z,21.34
2017-05-26T23:22:12.482Z,21.39
2017-05-26T23:23:15.170Z,21.23
2017-05-26T23:24:17.278Z,21.19
2017-05-26T23:25:19.263Z,21.32
2017-05-26T23:26:21.328Z,21.29
2017-05-26T23:27:23.197Z,21.29
2017-05-26T23:28:25.135Z,21.35
2017-05-26T23:29:27.090Z,21.26
2017-05-26T23:30:29.127Z,21.26
2017-05-26T23:31:31.266Z,21.38
2017-05-26T23:32:33.159Z,21.29
2017-05-26T23:33:35.093Z,21.34
2017-05-26T23:34:37.079Z,21.34
2017-05-26T23:35:38.958Z,21.26
2017-05-26T23:36:41.028Z,21.20
2017-05-26T23:37:43.122Z,21.17
2017-05-26T23:38:45.018Z,21.16
2017-05-26T23:39:46.943Z,21.17
2017-05-26T23:40:48.883Z,21.17
2017-05-26T23:41:50.873Z,21.11
2017-05-26T23:42:52.886Z,21.21
2017-05-26T23:43:54.918Z,21.27
2017-05-26T23:44:56.881Z,21.26
2017-05-26T23:45:58.857Z,21.27
2017-05-26T23:47:00.843Z,21.29
2017-05-26T23:48:02.655Z,21.17
2017-05-26T23:49:04.694Z,21.26
2017-05-26T23:50:06.845Z,21.17
2017-05-26T23:51:08.818Z,21.24
2017-05-26T23:52:10.758Z,21.26
2017-05-26T23:53:12.606Z,21.19
2017-05-26T23:54:14.600Z,21.09
2017-05-26T23:55:16.446Z,21.08
2017-05-26T23:56:18.361Z,21.13
2017-05-26T23:57:20.416Z,21.01
2017-05-26T23:58:22.151Z,21.04
2017-05-26T23:59:23.967Z,21.08
